createdAt,value
2018-03-09T00:00:12.126Z,998.28
2018-03-09T00:01:21.232Z,998.52
2018-03-09T00:02:30.162Z,998.4
2018-03-09T00:03:38.985Z,998.42
2018-03-09T00:04:47.814Z,998.48
2018-03-09T00:05:56.642Z,998.46
2018-03-09T00:07:05.469Z,998.46
2018-03-09T00:08:14.296Z,998.53
2018-03-09T00:09:23.681Z,998.59
2018-03-09T00:10:32.511Z,998.58
2018-03-09T00:11:41.339Z,998.55
2018-03-09T00:12:50.168Z,998.59
2018-03-09T00:13:59.195Z,998.65
2018-03-09T00:15:08.023Z,998.64
2018-03-09T00:16:16.848Z,998.66
2018-03-09T00:17:25.677Z,998.68
2018-03-09T00:18:34.510Z,998.75
2018-03-09T00:19:43.765Z,998.64
2018-03-09T00:20:52.871Z,998.74
2018-03-09T00:22:01.695Z,998.7
2018-03-09T00:23:10.525Z,998.82
2018-03-09T00:24:19.357Z,998.75
2018-03-09T00:25:28.569Z,998.76
2018-03-09T00:26:37.396Z,998.91
2018-03-09T00:27:46.507Z,998.93
2018-03-09T00:28:55.334Z,998.89
2018-03-09T00:30:04.161Z,998.84
2018-03-09T00:31:12.989Z,998.86
2018-03-09T00:32:21.818Z,998.95
2018-03-09T00:33:30.645Z,998.85
2018-03-09T00:34:39.473Z,999.03
2018-03-09T00:35:48.300Z,998.95
2018-03-09T00:36:57.129Z,999.04
2018-03-09T00:38:05.956Z,999.01
2018-03-09T00:39:14.786Z,999.07
2018-03-09T00:40:23.609Z,999.08
2018-03-09T00:41:32.439Z,999
2018-03-09T00:42:41.267Z,999.11
2018-03-09T00:43:50.094Z,999.02
2018-03-09T00:44:58.923Z,999.03
2018-03-09T00:46:08.031Z,999.17
2018-03-09T00:47:16.863Z,999.15
2018-03-09T00:48:25.684Z,999.14
2018-03-09T00:49:34.515Z,999.2
2018-03-09T00:50:43.342Z,999.22
2018-03-09T00:51:52.443Z,999.21
2018-03-09T00:53:01.272Z,999.18
2018-03-09T00:54:10.151Z,999.22
2018-03-09T00:55:18.975Z,999.31
2018-03-09T00:56:27.801Z,999.3
2018-03-09T00:57:36.630Z,999.27
2018-03-09T00:58:45.457Z,999.23
2018-03-09T00:59:54.286Z,999.33
2018-03-09T01:01:03.392Z,999.24
2018-03-09T01:02:12.222Z,999.27
2018-03-09T01:03:21.044Z,999.3
2018-03-09T01:04:29.873Z,999.3
2018-03-09T01:05:38.702Z,999.32
2018-03-09T01:06:47.529Z,999.31
2018-03-09T01:07:56.357Z,999.35
2018-03-09T01:09:05.188Z,999.34
2018-03-09T01:10:14.025Z,999.38
2018-03-09T01:11:22.889Z,999.35
2018-03-09T01:12:31.717Z,999.39
2018-03-09T01:13:40.542Z,999.44
2018-03-09T01:14:49.933Z,999.35
2018-03-09T01:15:59.038Z,999.37
2018-03-09T01:17:08.164Z,999.4
2018-03-09T01:18:16.990Z,999.37
2018-03-09T01:19:25.817Z,999.33
2018-03-09T01:20:34.669Z,999.38
2018-03-09T01:21:43.475Z,999.49
2018-03-09T01:22:52.552Z,999.38
2018-03-09T01:24:01.378Z,999.39
2018-03-09T01:25:10.487Z,999.49
2018-03-09T01:26:19.597Z,999.46
2018-03-09T01:27:28.419Z,999.48
2018-03-09T01:28:37.247Z,999.47
2018-03-09T01:29:46.076Z,999.57
2018-03-09T01:30:54.904Z,999.51
2018-03-09T01:32:04.047Z,999.58
2018-03-09T01:33:12.875Z,999.42
2018-03-09T01:34:21.855Z,999.57
2018-03-09T01:35:30.692Z,999.63
2018-03-09T01:36:39.520Z,999.62
2018-03-09T01:37:48.349Z,999.56
2018-03-09T01:38:57.175Z,999.52
2018-03-09T01:40:06.000Z,999.51
2018-03-09T01:41:14.836Z,999.65
2018-03-09T01:42:23.656Z,999.69
2018-03-09T01:43:32.484Z,999.73
2018-03-09T01:44:41.592Z,999.64
2018-03-09T01:45:50.694Z,999.67
2018-03-09T01:46:59.522Z,999.81
2018-03-09T01:48:08.348Z,999.7
2018-03-09T01:49:17.175Z,999.77
2018-03-09T01:50:26.003Z,999.76
2018-03-09T01:51:35.131Z,999.78
2018-03-09T01:52:43.958Z,999.81
2018-03-09T01:53:53.060Z,999.83
2018-03-09T01:55:01.888Z,999.81
2018-03-09T01:56:10.720Z,999.91
2018-03-09T01:57:19.926Z,999.83
2018-03-09T01:58:28.749Z,999.86
2018-03-09T01:59:37.576Z,999.93
2018-03-09T02:00:46.406Z,999.94
2018-03-09T02:01:55.234Z,999.92
2018-03-09T02:03:04.113Z,999.89
2018-03-09T02:04:12.942Z,1000.05
2018-03-09T02:05:22.045Z,1000.04
2018-03-09T02:06:31.150Z,1000.1
2018-03-09T02:07:39.982Z,1000.1
2018-03-09T02:08:49.012Z,1000.09
2018-03-09T02:09:57.840Z,1000.13
2018-03-09T02:11:06.670Z,1000.12
2018-03-09T02:12:15.497Z,1000.14
2018-03-09T02:13:24.328Z,1000.11
2018-03-09T02:14:33.357Z,1000.25
2018-03-09T02:15:42.475Z,1000.22
2018-03-09T02:16:51.304Z,1000.19
2018-03-09T02:18:00.134Z,1000.3
2018-03-09T02:19:08.959Z,1000.41
2018-03-09T02:20:18.267Z,1000.34
2018-03-09T02:21:27.097Z,1000.3
2018-03-09T02:22:36.196Z,1000.39
2018-03-09T02:23:45.024Z,1000.33
2018-03-09T02:24:53.854Z,1000.35
2018-03-09T02:26:02.836Z,1000.41
2018-03-09T02:27:11.942Z,1000.32
2018-03-09T02:28:20.773Z,1000.36
2018-03-09T02:29:29.598Z,1000.29
2018-03-09T02:30:38.429Z,1000.46
2018-03-09T02:31:47.304Z,1000.37
2018-03-09T02:32:56.132Z,1000.51
2018-03-09T02:34:04.959Z,1000.54
2018-03-09T02:35:13.786Z,1000.54
2018-03-09T02:36:22.617Z,1000.61
2018-03-09T02:37:31.446Z,1000.61
2018-03-09T02:38:40.274Z,1000.65
2018-03-09T02:39:49.101Z,1000.77
2018-03-09T02:40:57.932Z,1000.9
2018-03-09T02:42:06.764Z,1000.81
2018-03-09T02:43:15.655Z,1000.78
2018-03-09T02:44:24.483Z,1000.77
2018-03-09T02:45:33.592Z,1000.7
2018-03-09T02:46:42.424Z,1000.78
2018-03-09T02:47:51.253Z,1001.08
2018-03-09T02:49:00.083Z,1001.04
2018-03-09T02:50:09.192Z,1000.97
2018-03-09T02:51:18.023Z,1000.93
2018-03-09T02:52:26.850Z,1000.9
2018-03-09T02:53:35.697Z,1000.98
2018-03-09T02:54:44.527Z,1001.06
2018-03-09T02:55:53.355Z,1001.02
2018-03-09T02:57:02.184Z,1000.97
2018-03-09T02:58:11.017Z,1001.1
2018-03-09T02:59:19.844Z,1001.15
2018-03-09T03:00:29.045Z,1001.12
2018-03-09T03:01:37.873Z,1001.12
2018-03-09T03:02:46.702Z,1001.18
2018-03-09T03:03:55.531Z,1001.24
2018-03-09T03:05:04.368Z,1001.17
2018-03-09T03:06:13.304Z,1001.16
2018-03-09T03:07:22.125Z,1001.16
2018-03-09T03:08:30.954Z,1001.31
2018-03-09T03:09:39.784Z,1001.27
2018-03-09T03:10:48.610Z,1001.28
2018-03-09T03:11:57.739Z,1001.25
2018-03-09T03:13:06.843Z,1001.31
2018-03-09T03:14:15.670Z,1001.35
2018-03-09T03:15:24.500Z,1001.35
2018-03-09T03:16:33.329Z,1001.42
2018-03-09T03:17:42.454Z,1001.52
2018-03-09T03:18:51.284Z,1001.47
2018-03-09T03:20:00.392Z,1001.48
2018-03-09T03:21:09.224Z,1001.49
2018-03-09T03:22:18.381Z,1001.46
2018-03-09T03:23:27.311Z,1001.51
2018-03-09T03:24:36.139Z,1001.53
2018-03-09T03:25:44.966Z,1001.58
2018-03-09T03:26:53.796Z,1001.54
2018-03-09T03:28:02.904Z,1001.71
2018-03-09T03:29:11.980Z,1001.7
2018-03-09T03:30:20.810Z,1001.74
2018-03-09T03:31:29.640Z,1001.65
2018-03-09T03:32:38.745Z,1001.67
2018-03-09T03:33:47.577Z,1001.85
2018-03-09T03:34:56.677Z,1001.72
2018-03-09T03:36:05.507Z,1001.87
2018-03-09T03:37:14.335Z,1001.8
2018-03-09T03:38:23.188Z,1001.79
2018-03-09T03:39:31.987Z,1001.9
2018-03-09T03:40:40.822Z,1001.85
2018-03-09T03:41:49.648Z,1001.9
2018-03-09T03:42:58.475Z,1002.01
2018-03-09T03:44:07.306Z,1002.04
2018-03-09T03:45:16.411Z,1001.97
2018-03-09T03:46:25.289Z,1002.02
2018-03-09T03:47:34.116Z,1002.09
2018-03-09T03:48:42.946Z,1002.04
2018-03-09T03:49:51.776Z,1002.16
2018-03-09T03:51:00.601Z,1002.14
2018-03-09T03:52:09.431Z,1002.22
2018-03-09T03:53:18.259Z,1002.23
2018-03-09T03:54:27.093Z,1002.17
2018-03-09T03:55:35.920Z,1002.19
2018-03-09T03:56:44.750Z,1002.31
2018-03-09T03:57:53.829Z,1002.21
2018-03-09T03:59:02.660Z,1002.29
2018-03-09T04:00:11.488Z,1002.32
2018-03-09T04:01:20.316Z,1002.33
2018-03-09T04:02:29.145Z,1002.33
2018-03-09T04:03:38.401Z,1002.28
2018-03-09T04:04:47.500Z,1002.35
2018-03-09T04:05:56.330Z,1002.37
2018-03-09T04:07:05.165Z,1002.4
2018-03-09T04:08:14.265Z,1002.39
2018-03-09T04:09:23.143Z,1002.41
2018-03-09T04:10:31.971Z,1002.51
2018-03-09T04:11:40.800Z,1002.5
2018-03-09T04:12:49.626Z,1002.57
2018-03-09T04:13:58.453Z,1002.51
2018-03-09T04:15:07.282Z,1002.57
2018-03-09T04:16:16.387Z,1002.56
2018-03-09T04:17:25.214Z,1002.59
2018-03-09T04:18:34.042Z,1002.58
2018-03-09T04:19:42.870Z,1002.66
2018-03-09T04:20:52.562Z,1002.63
2018-03-09T04:22:01.390Z,1002.6
2018-03-09T04:23:10.221Z,1002.65
2018-03-09T04:24:19.324Z,1002.72
2018-03-09T04:25:28.151Z,1002.84
2018-03-09T04:26:36.980Z,1002.66
2018-03-09T04:27:45.807Z,1002.7
2018-03-09T04:28:54.634Z,1002.71
2018-03-09T04:30:03.466Z,1002.7
2018-03-09T04:31:12.293Z,1002.7
2018-03-09T04:32:21.205Z,1002.72
2018-03-09T04:33:29.999Z,1002.73
2018-03-09T04:34:38.828Z,1002.84
2018-03-09T04:35:47.658Z,1002.78
2018-03-09T04:36:56.484Z,1002.7
2018-03-09T04:38:05.462Z,1002.8
2018-03-09T04:39:14.292Z,1002.76
2018-03-09T04:40:23.118Z,1002.77
2018-03-09T04:41:31.946Z,1002.76
2018-03-09T04:42:40.777Z,1002.78
2018-03-09T04:43:49.705Z,1002.86
2018-03-09T04:44:58.536Z,1002.88
2018-03-09T04:46:07.364Z,1002.84
2018-03-09T04:47:16.195Z,1002.96
2018-03-09T04:48:25.302Z,1002.89
2018-03-09T04:49:34.414Z,1002.91
2018-03-09T04:50:43.245Z,1002.89
2018-03-09T04:51:52.077Z,1002.88
2018-03-09T04:53:00.902Z,1002.95
2018-03-09T04:54:09.732Z,1002.95
2018-03-09T04:55:18.560Z,1002.95
2018-03-09T04:56:27.388Z,1002.99
2018-03-09T04:57:36.213Z,1003.05
2018-03-09T04:58:45.043Z,1003.04
2018-03-09T04:59:53.871Z,1003.07
2018-03-09T05:01:02.900Z,1003.08
2018-03-09T05:02:12.001Z,1003.08
2018-03-09T05:03:20.831Z,1003.11
2018-03-09T05:04:29.662Z,1003.19
2018-03-09T05:05:38.487Z,1003.17
2018-03-09T05:06:47.615Z,1003.17
2018-03-09T05:07:56.445Z,1003.15
2018-03-09T05:09:05.278Z,1003.16
2018-03-09T05:10:14.433Z,1003.16
2018-03-09T05:11:23.215Z,1003.18
2018-03-09T05:12:32.379Z,1003.21
2018-03-09T05:13:41.209Z,1003.2
2018-03-09T05:14:50.038Z,1003.19
2018-03-09T05:15:58.868Z,1003.19
2018-03-09T05:17:07.698Z,1003.22
2018-03-09T05:18:16.527Z,1003.27
2018-03-09T05:19:25.357Z,1003.21
2018-03-09T05:20:34.459Z,1003.23
2018-03-09T05:21:43.288Z,1003.26
2018-03-09T05:22:52.113Z,1003.26
2018-03-09T05:24:01.145Z,1003.26
2018-03-09T05:25:09.976Z,1003.29
2018-03-09T05:26:18.803Z,1003.31
2018-03-09T05:27:27.633Z,1003.36
2018-03-09T05:28:36.461Z,1003.36
2018-03-09T05:29:45.441Z,1003.36
2018-03-09T05:30:54.286Z,1003.38
2018-03-09T05:32:03.402Z,1003.35
2018-03-09T05:33:13.057Z,1003.35
2018-03-09T05:34:21.890Z,1003.4
2018-03-09T05:35:30.733Z,1003.39
2018-03-09T05:36:39.562Z,1003.42
2018-03-09T05:37:48.390Z,1003.42
2018-03-09T05:38:57.469Z,1003.4
2018-03-09T05:40:06.296Z,1003.51
2018-03-09T05:41:15.177Z,1003.47
2018-03-09T05:42:24.281Z,1003.5
2018-03-09T05:43:33.110Z,1003.54
2018-03-09T05:44:41.939Z,1003.52
2018-03-09T05:45:50.770Z,1003.53
2018-03-09T05:46:59.602Z,1003.56
2018-03-09T05:48:08.431Z,1003.53
2018-03-09T05:49:17.260Z,1003.52
2018-03-09T05:50:26.090Z,1003.57
2018-03-09T05:51:34.925Z,1003.58
2018-03-09T05:52:43.749Z,1003.62
2018-03-09T05:53:52.580Z,1003.6
2018-03-09T05:55:01.410Z,1003.62
2018-03-09T05:56:10.237Z,1003.63
2018-03-09T05:57:19.071Z,1003.66
2018-03-09T05:58:27.949Z,1003.63
2018-03-09T05:59:37.052Z,1003.67
2018-03-09T06:00:45.881Z,1003.64
2018-03-09T06:01:54.713Z,1003.66
2018-03-09T06:03:03.547Z,1003.69
2018-03-09T06:04:12.950Z,1003.68
2018-03-09T06:05:21.780Z,1003.72
2018-03-09T06:06:30.606Z,1003.73
2018-03-09T06:07:39.441Z,1003.76
2018-03-09T06:08:48.270Z,1003.75
2018-03-09T06:09:57.677Z,1003.73
2018-03-09T06:11:06.505Z,1003.72
2018-03-09T06:12:15.332Z,1003.76
2018-03-09T06:13:24.438Z,1003.74
2018-03-09T06:14:33.268Z,1003.74
2018-03-09T06:15:42.374Z,1003.77
2018-03-09T06:16:51.207Z,1003.8
2018-03-09T06:18:00.039Z,1003.79
2018-03-09T06:19:08.865Z,1003.78
2018-03-09T06:20:17.696Z,1003.87
2018-03-09T06:21:26.675Z,1003.84
2018-03-09T06:22:35.504Z,1003.86
2018-03-09T06:23:44.613Z,1003.89
2018-03-09T06:24:53.443Z,1003.91
2018-03-09T06:26:02.545Z,1003.91
2018-03-09T06:27:11.524Z,1003.96
2018-03-09T06:28:20.633Z,1003.96
2018-03-09T06:29:29.464Z,1003.99
2018-03-09T06:30:38.295Z,1003.98
2018-03-09T06:31:47.125Z,1003.97
2018-03-09T06:32:56.053Z,1003.99
2018-03-09T06:34:05.161Z,1003.96
2018-03-09T06:35:13.993Z,1004.04
2018-03-09T06:36:22.822Z,1004.03
2018-03-09T06:37:31.929Z,1003.99
2018-03-09T06:38:40.760Z,1003.99
2018-03-09T06:39:49.591Z,1004.12
2018-03-09T06:40:58.518Z,1004.06
2018-03-09T06:42:07.346Z,1004.09
2018-03-09T06:43:16.175Z,1004.06
2018-03-09T06:44:25.004Z,1004.12
2018-03-09T06:45:33.831Z,1004.13
2018-03-09T06:46:42.663Z,1004.2
2018-03-09T06:47:51.492Z,1004.14
2018-03-09T06:49:00.320Z,1004.12
2018-03-09T06:50:09.301Z,1004.16
2018-03-09T06:51:18.131Z,1004.15
2018-03-09T06:52:27.006Z,1004.15
2018-03-09T06:53:35.790Z,1004.14
2018-03-09T06:54:44.618Z,1004.18
2018-03-09T06:55:53.653Z,1004.18
2018-03-09T06:57:02.483Z,1004.18
2018-03-09T06:58:11.313Z,1004.17
2018-03-09T06:59:20.141Z,1004.21
2018-03-09T07:00:29.246Z,1004.21
2018-03-09T07:01:38.377Z,1004.23
2018-03-09T07:02:47.206Z,1004.26
2018-03-09T07:03:56.032Z,1004.24
2018-03-09T07:05:05.137Z,1004.3
2018-03-09T07:06:13.969Z,1004.31
2018-03-09T07:07:23.124Z,1004.31
2018-03-09T07:08:31.954Z,1004.35
2018-03-09T07:09:40.787Z,1004.41
2018-03-09T07:10:49.612Z,1004.42
2018-03-09T07:11:58.720Z,1004.4
2018-03-09T07:13:08.079Z,1004.43
2018-03-09T07:14:16.907Z,1004.42
2018-03-09T07:15:25.736Z,1004.42
2018-03-09T07:16:34.565Z,1004.47
2018-03-09T07:17:43.394Z,1004.46
2018-03-09T07:18:52.323Z,1004.52
2018-03-09T07:20:01.155Z,1004.55
2018-03-09T07:21:09.986Z,1004.51
2018-03-09T07:22:18.814Z,1004.53
2018-03-09T07:23:27.678Z,1004.59
2018-03-09T07:24:36.475Z,1004.6
2018-03-09T07:25:45.306Z,1004.62
2018-03-09T07:26:54.134Z,1004.63
2018-03-09T07:28:02.964Z,1004.68
2018-03-09T07:29:11.794Z,1004.62
2018-03-09T07:30:20.674Z,1004.64
2018-03-09T07:31:29.508Z,1004.59
2018-03-09T07:32:38.360Z,1004.65
2018-03-09T07:33:47.468Z,1004.67
2018-03-09T07:34:56.596Z,1004.64
2018-03-09T07:36:05.808Z,1004.65
2018-03-09T07:37:14.638Z,1004.67
2018-03-09T07:38:23.466Z,1004.71
2018-03-09T07:39:32.298Z,1004.74
2018-03-09T07:40:41.131Z,1004.7
2018-03-09T07:41:49.960Z,1004.75
2018-03-09T07:42:58.790Z,1004.79
2018-03-09T07:44:07.619Z,1004.78
2018-03-09T07:45:16.449Z,1004.76
2018-03-09T07:46:25.305Z,1004.84
2018-03-09T07:47:34.611Z,1004.79
2018-03-09T07:48:43.444Z,1004.86
2018-03-09T07:49:52.277Z,1004.84
2018-03-09T07:51:01.384Z,1004.83
2018-03-09T07:52:10.215Z,1004.83
2018-03-09T07:53:19.147Z,1004.88
2018-03-09T07:54:27.981Z,1004.85
2018-03-09T07:55:36.813Z,1004.91
2018-03-09T07:56:45.645Z,1005
2018-03-09T07:57:54.754Z,1004.93
2018-03-09T07:59:04.159Z,1004.88
2018-03-09T08:00:12.990Z,1004.88
2018-03-09T08:01:21.819Z,1004.94
2018-03-09T08:02:30.651Z,1004.93
2018-03-09T08:03:39.487Z,1004.98
2018-03-09T08:04:48.367Z,1005.03
2018-03-09T08:05:57.192Z,1004.97
2018-03-09T08:07:06.023Z,1005.02
2018-03-09T08:08:15.135Z,1004.98
2018-03-09T08:09:23.966Z,1005.03
2018-03-09T08:10:32.896Z,1004.98
2018-03-09T08:11:41.760Z,1005.02
2018-03-09T08:12:50.604Z,1005.14
2018-03-09T08:13:59.389Z,1005.08
2018-03-09T08:15:08.220Z,1005.08
2018-03-09T08:16:17.052Z,1005.19
2018-03-09T08:17:26.207Z,1005.12
2018-03-09T08:18:35.065Z,1005.14
2018-03-09T08:19:43.867Z,1005.13
2018-03-09T08:20:52.698Z,1005.09
2018-03-09T08:22:01.683Z,1005.14
2018-03-09T08:23:10.515Z,1005.15
2018-03-09T08:24:19.346Z,1005.17
2018-03-09T08:25:28.466Z,1005.23
2018-03-09T08:26:37.303Z,1005.2
2018-03-09T08:27:46.177Z,1005.14
2018-03-09T08:28:55.011Z,1005.18
2018-03-09T08:30:03.843Z,1005.22
2018-03-09T08:31:12.678Z,1005.16
2018-03-09T08:32:21.509Z,1005.2
2018-03-09T08:33:30.620Z,1005.22
2018-03-09T08:34:39.454Z,1005.22
2018-03-09T08:35:48.555Z,1005.24
2018-03-09T08:36:57.387Z,1005.26
2018-03-09T08:38:06.220Z,1005.24
2018-03-09T08:39:15.350Z,1005.3
2018-03-09T08:40:24.196Z,1005.34
2018-03-09T08:41:33.282Z,1005.3
2018-03-09T08:42:42.116Z,1005.29
2018-03-09T08:43:50.946Z,1005.3
2018-03-09T08:44:59.777Z,1005.31
2018-03-09T08:46:08.609Z,1005.38
2018-03-09T08:47:17.439Z,1005.38
2018-03-09T08:48:26.270Z,1005.35
2018-03-09T08:49:35.099Z,1005.33
2018-03-09T08:50:44.082Z,1005.35
2018-03-09T08:51:52.916Z,1005.31
2018-03-09T08:53:01.779Z,1005.36
2018-03-09T08:54:10.581Z,1005.39
2018-03-09T08:55:19.688Z,1005.43
2018-03-09T08:56:28.620Z,1005.45
2018-03-09T08:57:37.454Z,1005.37
2018-03-09T08:58:46.286Z,1005.44
2018-03-09T08:59:55.113Z,1005.41
2018-03-09T09:01:03.953Z,1005.48
2018-03-09T09:02:13.113Z,1005.54
2018-03-09T09:03:22.286Z,1005.55
2018-03-09T09:04:31.056Z,1005.49
2018-03-09T09:05:39.890Z,1005.55
2018-03-09T09:06:48.721Z,1005.53
2018-03-09T09:07:58.028Z,1005.56
2018-03-09T09:09:06.866Z,1005.52
2018-03-09T09:10:15.695Z,1005.53
2018-03-09T09:11:24.527Z,1005.55
2018-03-09T09:12:33.694Z,1005.63
2018-03-09T09:13:42.927Z,1005.61
2018-03-09T09:14:51.759Z,1005.52
2018-03-09T09:16:00.870Z,1005.55
2018-03-09T09:17:09.699Z,1005.56
2018-03-09T09:18:18.531Z,1005.58
2018-03-09T09:19:27.663Z,1005.61
2018-03-09T09:20:36.493Z,1005.64
2018-03-09T09:21:45.628Z,1005.66
2018-03-09T09:22:54.463Z,1005.71
2018-03-09T09:24:03.569Z,1005.68
2018-03-09T09:25:12.552Z,1005.72
2018-03-09T09:26:21.385Z,1005.72
2018-03-09T09:27:30.543Z,1005.77
2018-03-09T09:28:39.358Z,1005.77
2018-03-09T09:29:48.191Z,1005.71
2018-03-09T09:30:57.427Z,1005.69
2018-03-09T09:32:06.260Z,1005.69
2018-03-09T09:33:15.090Z,1005.73
2018-03-09T09:34:23.921Z,1005.76
2018-03-09T09:35:32.756Z,1005.72
2018-03-09T09:36:41.744Z,1005.81
2018-03-09T09:37:50.572Z,1005.83
2018-03-09T09:38:59.441Z,1005.88
2018-03-09T09:40:08.521Z,1005.88
2018-03-09T09:41:17.904Z,1005.86
2018-03-09T09:42:26.837Z,1005.87
2018-03-09T09:43:35.709Z,1005.88
2018-03-09T09:44:44.500Z,1005.89
2018-03-09T09:45:53.331Z,1005.93
2018-03-09T09:47:02.162Z,1005.91
2018-03-09T09:48:11.047Z,1005.91
2018-03-09T09:49:19.879Z,1005.86
2018-03-09T09:50:28.988Z,1005.9
2018-03-09T09:51:37.820Z,1005.92
2018-03-09T09:52:46.650Z,1005.97
2018-03-09T09:53:55.529Z,1005.95
2018-03-09T09:55:04.314Z,1005.95
2018-03-09T09:56:13.148Z,1005.97
2018-03-09T09:57:21.980Z,1005.99
2018-03-09T09:58:30.816Z,1006.03
2018-03-09T09:59:39.700Z,1006
2018-03-09T10:00:48.569Z,1006.05
2018-03-09T10:01:57.650Z,1006.04
2018-03-09T10:03:06.486Z,1006.06
2018-03-09T10:04:15.600Z,1006.1
2018-03-09T10:05:24.806Z,1006.07
2018-03-09T10:06:33.641Z,1006.06
2018-03-09T10:07:42.472Z,1006.08
2018-03-09T10:08:51.306Z,1006.09
2018-03-09T10:10:00.140Z,1006.09
2018-03-09T10:11:09.135Z,1006.11
2018-03-09T10:12:17.956Z,1006.12
2018-03-09T10:13:26.890Z,1006.16
2018-03-09T10:14:35.724Z,1006.2
2018-03-09T10:15:44.558Z,1006.22
2018-03-09T10:16:53.795Z,1006.13
2018-03-09T10:18:02.633Z,1006.22
2018-03-09T10:19:11.467Z,1006.22
2018-03-09T10:20:20.301Z,1006.21
2018-03-09T10:21:29.135Z,1006.21
2018-03-09T10:22:38.019Z,1006.18
2018-03-09T10:23:47.139Z,1006.25
2018-03-09T10:24:55.972Z,1006.23
2018-03-09T10:26:04.812Z,1006.26
2018-03-09T10:27:13.922Z,1006.28
2018-03-09T10:28:22.909Z,1006.26
2018-03-09T10:29:31.741Z,1006.28
2018-03-09T10:30:40.850Z,1006.33
2018-03-09T10:31:49.686Z,1006.33
2018-03-09T10:32:58.526Z,1006.26
2018-03-09T10:34:07.737Z,1006.3
2018-03-09T10:35:16.575Z,1006.35
2018-03-09T10:36:25.405Z,1006.3
2018-03-09T10:37:34.241Z,1006.3
2018-03-09T10:38:43.082Z,1006.27
2018-03-09T10:39:51.916Z,1006.36
2018-03-09T10:41:00.755Z,1006.29
2018-03-09T10:42:09.865Z,1006.28
2018-03-09T10:43:18.701Z,1006.34
2018-03-09T10:44:27.537Z,1006.35
2018-03-09T10:45:36.675Z,1006.36
2018-03-09T10:46:45.510Z,1006.33
2018-03-09T10:47:54.352Z,1006.3
2018-03-09T10:49:03.193Z,1006.3
2018-03-09T10:50:12.027Z,1006.32
2018-03-09T10:51:20.963Z,1006.33
2018-03-09T10:52:29.798Z,1006.35
2018-03-09T10:53:38.629Z,1006.39
2018-03-09T10:54:47.465Z,1006.34
2018-03-09T10:55:56.590Z,1006.31
2018-03-09T10:57:05.574Z,1006.33
2018-03-09T10:58:14.407Z,1006.36
2018-03-09T10:59:23.239Z,1006.36
2018-03-09T11:00:32.071Z,1006.37
2018-03-09T11:01:40.907Z,1006.38
2018-03-09T11:02:49.792Z,1006.35
2018-03-09T11:03:58.625Z,1006.43
2018-03-09T11:05:07.456Z,1006.42
2018-03-09T11:06:16.295Z,1006.41
2018-03-09T11:07:25.131Z,1006.44
2018-03-09T11:08:34.216Z,1006.43
2018-03-09T11:09:43.328Z,1006.4
2018-03-09T11:10:52.165Z,1006.39
2018-03-09T11:12:01.003Z,1006.37
2018-03-09T11:13:09.836Z,1006.39
2018-03-09T11:14:18.823Z,1006.43
2018-03-09T11:15:27.658Z,1006.44
2018-03-09T11:16:36.488Z,1006.54
2018-03-09T11:17:45.323Z,1006.47
2018-03-09T11:18:54.156Z,1006.51
2018-03-09T11:20:02.990Z,1006.52
2018-03-09T11:21:11.825Z,1006.55
2018-03-09T11:22:20.661Z,1006.52
2018-03-09T11:23:29.490Z,1006.58
2018-03-09T11:24:38.324Z,1006.58
2018-03-09T11:25:47.166Z,1006.56
2018-03-09T11:26:56.274Z,1006.65
2018-03-09T11:28:05.400Z,1006.55
2018-03-09T11:29:14.237Z,1006.52
2018-03-09T11:30:23.073Z,1006.64
2018-03-09T11:31:31.906Z,1006.56
2018-03-09T11:32:40.741Z,1006.55
2018-03-09T11:33:49.576Z,1006.52
2018-03-09T11:34:58.411Z,1006.53
2018-03-09T11:36:07.248Z,1006.62
2018-03-09T11:37:16.233Z,1006.64
2018-03-09T11:38:25.069Z,1006.65
2018-03-09T11:39:33.908Z,1006.55
2018-03-09T11:40:42.740Z,1006.56
2018-03-09T11:41:51.574Z,1006.61
2018-03-09T11:43:00.689Z,1006.57
2018-03-09T11:44:09.525Z,1006.58
2018-03-09T11:45:18.361Z,1006.62
2018-03-09T11:46:27.193Z,1006.61
2018-03-09T11:47:36.035Z,1006.61
2018-03-09T11:48:44.962Z,1006.64
2018-03-09T11:49:53.795Z,1006.64
2018-03-09T11:51:02.630Z,1006.62
2018-03-09T11:52:11.463Z,1006.63
2018-03-09T11:53:20.295Z,1006.64
2018-03-09T11:54:29.656Z,1006.59
2018-03-09T11:55:38.494Z,1006.59
2018-03-09T11:56:47.324Z,1006.57
2018-03-09T11:57:56.436Z,1006.58
2018-03-09T11:59:05.550Z,1006.57
2018-03-09T12:00:14.688Z,1006.61
2018-03-09T12:01:23.521Z,1006.59
2018-03-09T12:02:32.356Z,1006.59
2018-03-09T12:03:41.190Z,1006.56
2018-03-09T12:04:50.023Z,1006.53
2018-03-09T12:05:59.157Z,1006.6
2018-03-09T12:07:08.272Z,1006.58
2018-03-09T12:08:17.107Z,1006.56
2018-03-09T12:09:26.227Z,1006.57
2018-03-09T12:10:35.059Z,1006.61
2018-03-09T12:11:44.194Z,1006.59
2018-03-09T12:12:53.028Z,1006.61
2018-03-09T12:14:01.863Z,1006.61
2018-03-09T12:15:10.699Z,1006.63
2018-03-09T12:16:19.539Z,1006.64
2018-03-09T12:17:28.415Z,1006.6
2018-03-09T12:18:37.249Z,1006.63
2018-03-09T12:19:46.363Z,1006.58
2018-03-09T12:20:55.195Z,1006.69
2018-03-09T12:22:04.030Z,1006.73
2018-03-09T12:23:12.966Z,1006.67
2018-03-09T12:24:21.800Z,1006.66
2018-03-09T12:25:30.638Z,1006.65
2018-03-09T12:26:39.473Z,1006.63
2018-03-09T12:27:48.585Z,1006.72
2018-03-09T12:28:57.419Z,1006.75
2018-03-09T12:30:06.253Z,1006.69
2018-03-09T12:31:15.092Z,1006.69
2018-03-09T12:32:24.209Z,1006.65
2018-03-09T12:33:33.037Z,1006.7
2018-03-09T12:34:41.968Z,1006.71
2018-03-09T12:35:50.804Z,1006.71
2018-03-09T12:36:59.637Z,1006.74
2018-03-09T12:38:08.472Z,1006.74
2018-03-09T12:39:17.306Z,1006.84
2018-03-09T12:40:26.242Z,1006.8
2018-03-09T12:41:35.350Z,1006.89
2018-03-09T12:42:44.190Z,1006.87
2018-03-09T12:43:53.020Z,1006.86
2018-03-09T12:45:01.856Z,1006.81
2018-03-09T12:46:10.760Z,1006.78
2018-03-09T12:47:19.582Z,1006.82
2018-03-09T12:48:28.417Z,1006.77
2018-03-09T12:49:37.253Z,1006.77
2018-03-09T12:50:46.189Z,1006.83
2018-03-09T12:51:55.025Z,1006.78
2018-03-09T12:53:03.863Z,1006.84
2018-03-09T12:54:12.701Z,1006.85
2018-03-09T12:55:21.538Z,1006.8
2018-03-09T12:56:30.375Z,1006.84
2018-03-09T12:57:39.262Z,1006.8
2018-03-09T12:58:48.100Z,1006.84
2018-03-09T12:59:57.223Z,1006.88
2018-03-09T13:01:06.058Z,1006.82
2018-03-09T13:02:14.893Z,1006.8
2018-03-09T13:03:23.735Z,1006.84
2018-03-09T13:04:32.577Z,1006.84
2018-03-09T13:05:41.412Z,1006.84
2018-03-09T13:06:50.250Z,1006.83
2018-03-09T13:07:59.093Z,1006.9
2018-03-09T13:09:08.204Z,1006.86
2018-03-09T13:10:17.041Z,1006.87
2018-03-09T13:11:25.888Z,1006.9
2018-03-09T13:12:34.717Z,1006.9
2018-03-09T13:13:43.553Z,1006.86
2018-03-09T13:14:52.387Z,1006.89
2018-03-09T13:16:01.235Z,1006.86
2018-03-09T13:17:10.064Z,1006.93
2018-03-09T13:18:18.903Z,1006.89
2018-03-09T13:19:27.734Z,1006.87
2018-03-09T13:20:36.571Z,1006.88
2018-03-09T13:21:45.407Z,1006.83
2018-03-09T13:22:54.245Z,1006.88
2018-03-09T13:24:03.510Z,1006.86
2018-03-09T13:25:12.620Z,1006.83
2018-03-09T13:26:21.461Z,1006.84
2018-03-09T13:27:30.296Z,1006.8
2018-03-09T13:28:39.414Z,1006.81
2018-03-09T13:29:48.254Z,1006.79
2018-03-09T13:30:57.091Z,1006.81
2018-03-09T13:32:05.925Z,1006.76
2018-03-09T13:33:14.760Z,1006.82
2018-03-09T13:34:23.649Z,1006.82
2018-03-09T13:35:32.482Z,1006.75
2018-03-09T13:36:41.318Z,1006.73
2018-03-09T13:37:50.155Z,1006.73
2018-03-09T13:38:59.264Z,1006.78
2018-03-09T13:40:08.251Z,1006.77
2018-03-09T13:41:17.085Z,1006.77
2018-03-09T13:42:25.921Z,1006.79
2018-03-09T13:43:34.758Z,1006.79
2018-03-09T13:44:43.874Z,1006.81
2018-03-09T13:45:52.865Z,1006.81
2018-03-09T13:47:01.975Z,1006.81
2018-03-09T13:48:10.818Z,1006.84
2018-03-09T13:49:19.676Z,1006.79
2018-03-09T13:50:28.506Z,1006.83
2018-03-09T13:51:37.496Z,1006.81
2018-03-09T13:52:46.331Z,1006.82
2018-03-09T13:53:55.165Z,1006.79
2018-03-09T13:55:04.001Z,1006.82
2018-03-09T13:56:12.834Z,1006.79
2018-03-09T13:57:21.670Z,1006.83
2018-03-09T13:58:30.839Z,1006.75
2018-03-09T13:59:39.674Z,1006.83